• Join FlightAware (Why Join?)
  • Login
  • US Flag 
04:55AM EDT


 

Airport Tracker/Info


-or-


 

Live Flight TrackerFlight Track Log ✈ EJA370 ✈ 09-May-2013 ✈ KPIT - KPHL

Flight Track Log - Related Links

Times and Time Zones

All times are in EDT time to prevent confusion due to time zone crossing. See the EJA370 flight status page for this flight to view local times or setup timezone preferences in your user account.

Time Position Orientation Groundspeed Altitude Reporting Facility
EDT Latitude Longitude Course Direction KTS MPH feet Rate Location/Type
04:48PM 40.5400 -80.2797 65° Northeast 227 261 4,500  Level Cleveland Center
04:49PM 40.5647 -80.2114 65° Northeast 258 297 10,000 4,620 Climbing Cleveland Center
04:51PM 40.5222 -79.9878 104° East 285 328 18,400 3,840 Climbing Cleveland Center
04:52PM 40.4983 -79.8486 103° East 341 392 21,600 3,120 Climbing Cleveland Center
04:53PM 40.4744 -79.7069 102° East 381 438 24,700 2,640 Climbing Cleveland Center
04:54PM 40.4483 -79.5572 103° East 403 464 26,900 1,140 Climbing Cleveland Center
04:55PM 40.4194 -79.3914 103° East 433 498 27,000  Climbing Cleveland Center
04:56PM 40.3906 -79.2311 103° East 449 517 27,000  Level Cleveland Center
04:57PM 40.3656 -79.0653 101° East 459 528 27,000  Level Cleveland Center
04:58PM 40.3589 -78.8939 93° East 459 528 27,000  Level Cleveland Center
04:59PM 40.3522 -78.7250 93° East 464 534 27,000  Level Cleveland Center
05:00PM 40.3431 -78.5592 94° East 459 528 27,000 -600 Level Cleveland Center
05:02PM 40.3250 -78.2122 94° East 443 510 25,000 -600 Descending New York Center
05:03PM 40.3181 -78.0564 93° East 428 493 25,000  Level New York Center
05:04PM 40.3108 -77.9003 93° East 428 493 25,000  Level New York Center
05:05PM 40.3100 -77.7422 90° East 428 493 25,000 -840 Level New York Center
05:06PM 40.3083 -77.5922 91° East 415 478 23,400 -2,100 Descending New York Center
05:07PM 40.3069 -77.4342 91° East 403 464 20,800 -2,460 Descending New York Center
05:08PM 40.3039 -77.2625 91° East 398 458 18,100 -1,320 Descending New York Center
05:09PM 40.3022 -77.1397 91° East 388 447 18,000 -60 Descending New York Center
05:10PM 40.2831 -76.9936 100° East 373 429 18,000 -60 Level New York Center
05:11PM 40.2544 -76.8606 106° East 373 429 17,900 -900 Descending New York Center
05:12PM 40.2236 -76.7272 107° East 385 443 16,300 -1,680 Descending New York Center
05:13PM 40.1908 -76.5914 107° East 390 449 14,600 -1,740 Descending New York Center
05:14PM 40.1597 -76.4583 107° East 390 449 12,900 -1,680 Descending New York Center
05:15PM 40.1319 -76.3447 108° East 384 442 11,300 -1,500 Descending New York Center
05:16PM 40.1131 -76.2103 100° East 374 430 10,000 -660 Descending New York Center
05:17PM 40.1047 -76.0739 95° East 351 404 10,000  Level New York Center
05:18PM 40.0953 -75.9619 96° East 351 404 10,000 -540 Level New York Center
05:19PM 40.0864 -75.8283 95° East 341 392 9,000 -1,020 Descending New York Center
05:20PM 40.0797 -75.7381 95° East 299 344 8,000 -840 Descending New York Center
05:21PM 40.0742 -75.6239 94° East 283 326 7,400 -1,020 Descending New York Center
05:22PM 40.0694 -75.5339 94° East 283 326 6,000 -720 Descending New York Center
05:23PM 40.0653 -75.4278 93° East 272 313 6,000  Level New York Center
05:24PM 40.0608 -75.3328 93° East 278 320 6,000  Level New York Center
05:25PM 40.0667 -75.2833 81° East 285 328 6,000  Level Philadelphia TRACON
05:26PM 40.0333 -75.2000 118° Southeast 225 259 6,000  Level Philadelphia TRACON
05:27PM 39.9833 -75.1667 153° Southeast 233 268 6,000  Level Philadelphia TRACON
05:28PM 40.0000 -75.0833 75° East 197 227 6,000  Level Philadelphia TRACON
05:29PM 40.0000 -75.0167 90° East 206 237 6,000 -960 Level Philadelphia TRACON
05:30PM 40.0167 -74.9333 75° East 210 242 4,000 -1,140 Descending Philadelphia TRACON
05:31PM 39.9833 -74.8833 131° Southeast 176 203 3,700 -540 Descending Philadelphia TRACON
05:32PM 39.9500 -74.9333 229° Southwest 162 186 3,000 -900 Descending Philadelphia TRACON
05:33PM 39.9333 -74.9833 247° West 175 201 2,000 -540 Descending Philadelphia TRACON
05:34PM 39.9167 -75.0500 252° West 167 192 2,000 -60 Level Philadelphia TRACON
05:35PM 39.9167 -75.1000 270° West 163 188 1,900 -480 Descending Philadelphia TRACON
05:36PM 39.9000 -75.1500 247° West 152 175 1,100 -780 Descending Philadelphia TRACON
05:37PM 39.8833 -75.2000 247° West 107 123 400 -720 Descending Philadelphia TRACON
05:39PM 39.8667 -75.2333 247° West  Level FlightAware Approximate
05:46PM 39.8722 -75.2409 247° West  Level Estimated